This is the latest recevied weather packets stored in our database for station/object SV1RVP-13. If no packets are shown the sender has not sent any weather packets the latest 10 day(s).
| Time | Temp. | Humidity | Pressure | Rain* | Wind** | Luminosity | Snow |
|---|---|---|---|---|---|---|---|
| 1777805910 | 12.22° C | 66% | 1016.6 hPa | 1.52 mm | - | - | - |
| 1777805332 | 12.22° C | 65% | 1016.5 hPa | 1.52 mm | - | - | - |
| 1777804722 | 12.78° C | 62% | 1016.5 hPa | 1.52 mm | - | - | - |
| 1777804122 | 12.78° C | 60% | 1016.5 hPa | 1.52 mm | - | - | - |
| 1777803512 | 12.22° C | 60% | 1016.5 hPa | 1.52 mm | - | - | - |
| 1777802913 | 12.22° C | 60% | 1016.5 hPa | 1.52 mm | - | - | - |
| 1777802322 | 12.78° C | 58% | 1016.5 hPa | 1.52 mm | - | - | - |
| 1777801720 | 12.78° C | 59% | 1016.5 hPa | 1.52 mm | - | - | - |
| 1777801113 | 12.78° C | 58% | 1016.2 hPa | 1.52 mm | - | - | - |
| 1777800516 | 13.33° C | 58% | 1016.4 hPa | 1.52 mm | - | - | - |
| 1777799917 | 13.33° C | 57% | 1016.4 hPa | 1.52 mm | - | - | - |
| 1777799307 | 12.78° C | 57% | 1016.5 hPa | 1.52 mm | - | - | - |
| 1777798725 | 12.78° C | 58% | 1016.3 hPa | 1.52 mm | - | - | - |
| 1777798124 | 12.78° C | 59% | 1016.4 hPa | 1.52 mm | - | - | - |
| 1777797517 | 12.22° C | 62% | 1016.3 hPa | 1.52 mm | - | - | - |
| 1777796921 | 12.78° C | 62% | 1016.2 hPa | 1.52 mm | - | - | - |
| 1777796323 | 13.33° C | 60% | 1016.1 hPa | 1.52 mm | - | - | - |
| 1777795717 | 12.78° C | 62% | 1016.1 hPa | 1.52 mm | - | - | - |
| 1777795117 | 11.67° C | 67% | 1016.2 hPa | 1.52 mm | - | - | - |
| 1777794518 | 11.11° C | 69% | 1016.2 hPa | 1.52 mm | - | - | - |
| 1777793910 | 10.56° C | 70% | 1016.5 hPa | 1.52 mm | - | - | - |
| 1777793317 | 10.56° C | 71% | 1016.4 hPa | 1.52 mm | - | - | - |
| 1777792717 | 10° C | 74% | 1016.2 hPa | 1.52 mm | - | - | - |
| 1777792107 | 9.44° C | 74% | 1016.4 hPa | 1.52 mm | - | - | - |
| 1777791518 | 9.44° C | 75% | 1016.3 hPa | 1.52 mm | - | - | - |
* Rain since midnight (hover to see other rain measurements)
** Current wind speed in m/s (hover to see current wind gust speed)